Time;durP1;ratioP1;P1;durP2;ratioP2;P2;SDS_P1;SDS_P2;PMS_P1;PMS_P2;Temp;Humidity;BMP_temperature;BMP_pressure;BME280_temperature;BME280_humidity;BME280_pressure;Samples;Min_cycle;Max_cycle;Signal;HPM_P1;HPM_P2
2022/10/25 00:01:52;;;;;;;4.07;1.55;;;;;;;19.60;56.67;101156.94;5086776;28;20059;-45
2022/10/25 00:04:19;;;;;;;3.65;1.63;;;;;;;19.59;57.16;101157.94;5085530;28;20131;-45
2022/10/25 00:06:46;;;;;;;4.03;1.50;;;;;;;19.58;57.23;101158.97;5085972;28;20044;-44
2022/10/25 00:09:13;;;;;;;2.22;1.10;;;;;;;19.59;56.62;101159.81;5085405;28;20442;-44
2022/10/25 00:11:39;;;;;;;3.83;1.50;;;;;;;19.59;56.61;101157.94;5084734;28;20059;-44
2022/10/25 00:14:06;;;;;;;4.68;1.30;;;;;;;19.59;57.23;101157.09;5082278;28;20066;-43
2022/10/25 00:16:36;;;;;;;3.63;1.45;;;;;;;19.59;56.98;101170.56;5087144;28;20058;-43
2022/10/25 00:19:03;;;;;;;4.95;1.40;;;;;;;19.57;56.97;101165.31;5088025;28;20048;-44
2022/10/25 00:21:30;;;;;;;3.55;1.27;;;;;;;19.59;56.93;101170.56;5082946;28;20055;-44
2022/10/25 00:23:56;;;;;;;4.28;1.80;;;;;;;19.57;56.95;101173.38;5083429;28;20058;-44
2022/10/25 00:26:23;;;;;;;3.42;1.27;;;;;;;19.57;56.50;101169.84;5084273;28;20056;-46
2022/10/25 00:28:53;;;;;;;3.72;1.55;;;;;;;19.56;56.83;101162.78;5087472;28;20184;-43
2022/10/25 00:31:19;;;;;;;4.03;1.50;;;;;;;19.55;56.58;101153.88;5084658;28;20059;-43
2022/10/25 00:33:46;;;;;;;3.88;1.50;;;;;;;19.56;56.59;101168.16;5086506;28;20434;-44
2022/10/25 00:36:19;;;;;;;6.70;1.70;;;;;;;19.55;57.28;101172.72;5087850;28;20340;-44
2022/10/25 00:38:45;;;;;;;4.47;1.43;;;;;;;19.54;56.56;101173.72;5080408;28;20108;-44
2022/10/25 00:41:14;;;;;;;3.20;1.48;;;;;;;19.55;57.24;101175.41;5084552;28;20129;-43
2022/10/25 00:43:44;;;;;;;3.45;1.63;;;;;;;19.55;56.67;101183.47;5079044;28;20047;-43
2022/10/25 00:46:22;;;;;;;5.13;1.45;;;;;;;19.54;57.04;101186.28;5086680;28;20054;-43
2022/10/25 00:49:01;;;;;;;3.20;1.50;;;;;;;19.53;56.58;101179.22;5083971;28;20040;-43
2022/10/25 00:51:36;;;;;;;2.50;1.40;;;;;;;19.54;57.16;101187.16;5082061;28;20051;-47
2022/10/25 00:54:03;;;;;;;3.95;1.63;;;;;;;19.55;57.23;101186.16;5084587;28;20051;-44
2022/10/25 00:56:34;;;;;;;3.10;1.38;;;;;;;19.53;56.83;101185.44;5086552;28;20056;-45
2022/10/25 00:59:05;;;;;;;5.20;1.70;;;;;;;19.54;57.02;101184.47;5085459;28;20464;-45
2022/10/25 01:01:32;;;;;;;4.60;1.52;;;;;;;19.55;56.87;101190.69;5086876;28;20123;-43
2022/10/25 01:04:03;;;;;;;4.82;1.65;;;;;;;19.54;56.94;101184.47;5084959;28;20045;-43
2022/10/25 01:06:41;;;;;;;3.38;1.60;;;;;;;19.53;57.20;101181.91;5083529;28;20059;-43
2022/10/25 01:09:12;;;;;;;2.67;1.23;;;;;;;19.54;57.18;101188.97;5083361;28;20056;-44
2022/10/25 01:11:39;;;;;;;2.80;1.70;;;;;;;19.53;56.45;101182.75;5084472;28;20093;-44
2022/10/25 01:14:08;;;;;;;2.80;1.20;;;;;;;19.54;56.75;101197.91;5085471;28;20051;-46
2022/10/25 01:17:01;;;;;;;4.90;1.38;;;;;;;19.53;57.20;101196.19;5083273;28;20051;-46
2022/10/25 01:19:41;;;;;;;3.78;1.52;;;;;;;19.53;57.01;101196.19;5080941;28;20047;-45
2022/10/25 01:22:21;;;;;;;5.28;1.38;;;;;;;19.53;57.12;101198.06;5083789;28;20056;-44
2022/10/25 01:25:29;;;;;;;4.10;1.23;;;;;;;19.52;57.24;101207.97;5084378;28;20052;-45
2022/10/25 01:27:59;;;;;;;3.35;1.40;;;;;;;19.52;56.73;101205.28;5082714;28;20051;-47
2022/10/25 01:30:57;;;;;;;4.75;1.58;;;;;;;19.51;57.25;101205.44;5081995;28;20040;-44
2022/10/25 01:33:45;;;;;;;4.75;1.75;;;;;;;19.51;57.03;101202.75;5076793;28;20095;-43
2022/10/25 01:36:29;;;;;;;3.63;1.30;;;;;;;19.51;57.35;101208.97;5089094;28;20040;-43
2022/10/25 01:39:08;;;;;;;3.15;1.40;;;;;;;19.49;56.79;101203.72;5082686;28;20043;-43
2022/10/25 01:41:54;;;;;;;2.97;1.02;;;;;;;19.50;56.66;101201.91;5086177;28;20067;-44
2022/10/25 01:44:45;;;;;;;3.83;1.65;;;;;;;19.49;57.33;101210.94;5080727;28;20055;-44
2022/10/25 01:47:18;;;;;;;2.13;1.38;;;;;;;19.49;57.43;101208.25;5083531;28;20051;-43
2022/10/25 01:50:01;;;;;;;6.72;1.67;;;;;;;19.49;56.70;101219.03;5081809;28;20055;-45
2022/10/25 01:52:28;;;;;;;2.97;1.40;;;;;;;19.48;57.29;101223.56;5080298;28;20082;-43
2022/10/25 01:54:54;;;;;;;6.28;1.67;;;;;;;19.49;57.35;101219.03;5082053;28;20043;-45
2022/10/25 01:57:33;;;;;;;3.65;1.42;;;;;;;19.47;56.74;101215.66;5082405;28;20048;-43
2022/10/25 02:00:02;;;;;;;4.78;1.10;;;;;;;19.47;57.21;101223.72;5081975;28;20051;-43
2022/10/25 02:02:43;;;;;;;1.17;0.85;;;;;;;19.46;56.77;101219.34;5078224;28;20864;-44
2022/10/25 02:05:36;;;;;;;4.97;1.10;;;;;;;19.45;57.27;101215.78;5081151;28;20708;-44
2022/10/25 02:08:31;;;;;;;4.22;1.67;;;;;;;19.45;57.40;101220.31;5074500;28;20048;-44
2022/10/25 02:11:22;;;;;;;4.95;1.20;;;;;;;19.43;56.83;101217.81;5083286;28;20101;-43
2022/10/25 02:14:04;;;;;;;4.95;1.38;;;;;;;19.44;57.17;101216.78;5082297;28;20381;-43
2022/10/25 02:16:37;;;;;;;4.38;1.08;;;;;;;19.43;57.02;101220.50;5080765;28;20051;-44
2022/10/25 02:19:07;;;;;;;2.38;1.02;;;;;;;19.43;57.09;101220.50;5079789;28;20052;-44
2022/10/25 02:21:35;;;;;;;4.15;1.10;;;;;;;19.45;56.86;101223.00;5083752;28;20047;-44
2022/10/25 02:24:15;;;;;;;5.28;1.10;;;;;;;19.42;56.74;101234.94;5080303;28;20051;-43
2022/10/25 02:26:43;;;;;;;4.80;1.30;;;;;;;19.43;57.46;101225.88;5079993;28;20054;-43
2022/10/25 02:29:11;;;;;;;6.72;2.00;;;;;;;19.43;56.70;101227.72;5085002;28;20125;-43
2022/10/25 02:31:38;;;;;;;3.45;1.20;;;;;;;19.42;57.17;101228.72;5080472;28;20109;-43
2022/10/25 02:34:05;;;;;;;3.55;1.70;;;;;;;19.42;57.37;101232.25;5083368;28;20381;-46
2022/10/25 02:36:31;;;;;;;4.25;1.60;;;;;;;19.42;57.56;101234.09;5084495;28;20043;-44
2022/10/25 02:38:59;;;;;;;5.28;1.50;;;;;;;19.41;57.28;101235.91;5084088;28;20414;-44
2022/10/25 02:41:25;;;;;;;5.05;1.50;;;;;;;19.41;57.41;101235.91;5081041;28;20048;-45
2022/10/25 02:43:52;;;;;;;3.70;1.20;;;;;;;19.41;57.46;101233.22;5083023;28;20109;-43
2022/10/25 02:46:21;;;;;;;2.60;1.02;;;;;;;19.40;56.88;101231.53;5084519;28;20082;-44
2022/10/25 02:48:48;;;;;;;3.72;1.15;;;;;;;19.39;56.80;101229.84;5084182;28;20059;-44
2022/10/25 02:51:15;;;;;;;3.60;1.17;;;;;;;19.41;56.83;101243.13;5088751;28;20058;-44
2022/10/25 02:53:42;;;;;;;4.40;1.45;;;;;;;19.39;57.38;101231.72;5088755;28;20040;-44
2022/10/25 02:56:15;;;;;;;3.70;1.40;;;;;;;19.40;57.32;101239.59;5088232;28;20063;-46
2022/10/25 02:58:42;;;;;;;6.47;1.60;;;;;;;19.40;57.46;101244.97;5088740;28;20052;-45
2022/10/25 03:01:09;;;;;;;4.50;1.25;;;;;;;19.40;56.81;101249.50;5087736;28;20066;-46
2022/10/25 03:03:36;;;;;;;6.15;1.17;;;;;;;19.38;57.34;101255.06;5087719;28;20101;-43
2022/10/25 03:06:03;;;;;;;2.65;0.90;;;;;;;19.40;57.35;101252.22;5085625;28;20048;-45
2022/10/25 03:08:30;;;;;;;2.72;1.10;;;;;;;19.39;57.20;101259.44;5088023;28;20045;-43
2022/10/25 03:10:56;;;;;;;2.45;1.10;;;;;;;19.38;56.87;101262.28;5087771;28;20458;-44
2022/10/25 03:13:23;;;;;;;2.83;1.20;;;;;;;19.40;56.75;101260.28;5089769;28;20060;-45
2022/10/25 03:15:49;;;;;;;4.32;1.10;;;;;;;19.39;56.90;101254.06;5088465;28;20059;-45
2022/10/25 03:18:16;;;;;;;3.80;1.48;;;;;;;19.39;57.04;101261.28;5087497;28;20040;-44
2022/10/25 03:20:43;;;;;;;5.15;1.13;;;;;;;19.39;57.24;101270.19;5085453;28;20074;-45
2022/10/25 03:23:11;;;;;;;3.05;1.00;;;;;;;19.40;56.85;101276.41;5087645;28;20052;-45
2022/10/25 03:25:37;;;;;;;3.53;1.20;;;;;;;19.39;56.90;101280.09;5081360;28;20060;-44
2022/10/25 03:28:04;;;;;;;4.47;1.42;;;;;;;19.38;56.83;101278.41;5080808;28;20052;-44
2022/10/25 03:30:31;;;;;;;4.35;1.35;;;;;;;19.38;57.17;101281.09;5085833;28;20350;-45
2022/10/25 03:32:57;;;;;;;4.97;1.30;;;;;;;19.37;57.05;101279.38;5084915;28;20063;-45
2022/10/25 03:35:25;;;;;;;4.63;1.10;;;;;;;19.37;57.26;101284.75;5088771;28;20044;-44
2022/10/25 03:37:51;;;;;;;2.47;0.90;;;;;;;19.37;57.40;101280.22;5086447;28;20052;-43
2022/10/25 03:40:19;;;;;;;3.83;1.20;;;;;;;19.38;57.25;101294.53;5088061;28;20323;-44
2022/10/25 03:42:45;;;;;;;4.03;1.30;;;;;;;19.36;56.92;101291.97;5087262;28;20086;-43
2022/10/25 03:45:12;;;;;;;5.75;1.38;;;;;;;19.37;57.27;101300.88;5083041;28;20045;-44
2022/10/25 03:47:39;;;;;;;4.10;1.20;;;;;;;19.37;56.92;101308.94;5086010;28;20056;-44
2022/10/25 03:50:06;;;;;;;4.72;1.40;;;;;;;19.37;57.42;101306.25;5086779;28;20055;-46
2022/10/25 03:52:33;;;;;;;3.97;1.27;;;;;;;19.36;57.21;101304.56;5082043;28;20043;-45
2022/10/25 03:54:59;;;;;;;3.75;1.20;;;;;;;19.34;57.07;101314.66;5083926;28;20253;-44
2022/10/25 03:57:26;;;;;;;5.20;1.30;;;;;;;19.35;56.73;101310.97;5084331;28;20048;-45
2022/10/25 03:59:52;;;;;;;7.82;1.45;;;;;;;19.35;56.70;101313.66;5083735;28;20051;-45
2022/10/25 04:02:19;;;;;;;2.38;1.00;;;;;;;19.34;57.06;101320.03;5084483;28;20071;-43
2022/10/25 04:04:45;;;;;;;2.65;1.10;;;;;;;19.34;56.79;101320.03;5087145;28;20043;-44
2022/10/25 04:07:12;;;;;;;4.10;1.35;;;;;;;19.33;57.38;101319.16;5086911;28;20097;-44
2022/10/25 04:09:38;;;;;;;5.32;1.30;;;;;;;19.32;57.45;101320.16;5088744;28;20117;-43
2022/10/25 04:12:05;;;;;;;5.97;1.65;;;;;;;19.32;56.93;101324.69;5088356;28;20052;-44
2022/10/25 04:14:31;;;;;;;3.30;1.23;;;;;;;19.33;57.44;101331.75;5089337;28;20070;-44
2022/10/25 04:16:58;;;;;;;7.28;1.40;;;;;;;19.30;57.43;101326.69;5085157;28;20052;-44
2022/10/25 04:19:24;;;;;;;3.53;1.08;;;;;;;19.31;57.41;101328.38;5084247;28;20350;-43
2022/10/25 04:21:51;;;;;;;4.20;1.40;;;;;;;19.30;57.52;101330.22;5081680;28;20044;-45
2022/10/25 04:24:17;;;;;;;6.10;1.50;;;;;;;19.30;57.16;101324.00;5083127;28;20052;-44
2022/10/25 04:26:44;;;;;;;5.13;1.30;;;;;;;19.29;56.96;101328.50;5081431;28;20039;-44
2022/10/25 04:29:11;;;;;;;4.20;1.30;;;;;;;19.30;57.01;101332.06;5084102;28;20052;-44
2022/10/25 04:31:37;;;;;;;2.53;1.23;;;;;;;19.30;57.08;101337.44;5080531;28;20057;-46
2022/10/25 04:34:04;;;;;;;2.67;1.65;;;;;;;19.29;56.96;101338.41;5072579;28;20051;-44
2022/10/25 04:36:30;;;;;;;4.15;1.42;;;;;;;19.29;57.62;101341.97;5077923;28;20424;-44
2022/10/25 04:38:57;;;;;;;5.72;1.42;;;;;;;19.28;57.40;101340.28;5085382;28;20454;-44
2022/10/25 04:41:23;;;;;;;7.20;1.25;;;;;;;19.28;57.00;101336.75;5088548;28;20067;-43
2022/10/25 04:43:51;;;;;;;5.18;1.48;;;;;;;19.27;57.44;101329.69;5083950;28;20047;-44
2022/10/25 04:46:18;;;;;;;4.88;1.08;;;;;;;19.27;56.60;101338.59;5084914;28;20051;-43
2022/10/25 04:48:45;;;;;;;3.80;1.35;;;;;;;19.27;57.55;101352.03;5083594;28;20045;-43
2022/10/25 04:51:12;;;;;;;4.75;1.60;;;;;;;19.26;57.21;101355.72;5085774;28;20052;-44
2022/10/25 04:53:39;;;;;;;3.63;1.05;;;;;;;19.24;57.06;101361.22;5079493;28;20067;-43
2022/10/25 04:56:08;;;;;;;3.63;1.40;;;;;;;19.24;56.92;101369.28;5084755;28;20055;-43
2022/10/25 04:58:36;;;;;;;4.22;1.20;;;;;;;19.26;57.07;101369.16;5083535;28;20109;-43
2022/10/25 05:01:09;;;;;;;4.55;1.50;;;;;;;19.26;57.55;101362.91;5084642;28;20051;-44
2022/10/25 05:03:35;;;;;;;2.47;1.23;;;;;;;19.26;57.13;101379.91;5077554;28;20121;-43
2022/10/25 05:06:16;;;;;;;3.45;1.20;;;;;;;19.26;57.13;101384.41;5084715;28;20454;-44
2022/10/25 05:08:44;;;;;;;3.80;1.27;;;;;;;19.24;56.85;101382.72;5079684;28;20048;-44
2022/10/25 05:11:12;;;;;;;4.10;1.38;;;;;;;19.27;57.68;101375.38;5083920;28;20340;-43
2022/10/25 05:13:40;;;;;;;4.05;1.45;;;;;;;19.25;57.13;101380.88;5082844;28;20052;-43
2022/10/25 05:16:10;;;;;;;5.57;1.55;;;;;;;19.25;57.42;101367.44;5084367;28;20052;-43
2022/10/25 05:18:36;;;;;;;3.85;1.40;;;;;;;19.25;57.03;101362.06;5085735;28;20105;-43
2022/10/25 05:21:04;;;;;;;6.22;1.73;;;;;;;19.25;57.02;101362.06;5084972;28;20044;-44
2022/10/25 05:23:33;;;;;;;3.38;1.80;;;;;;;19.24;56.92;101377.34;5082484;28;20048;-43
2022/10/25 05:26:06;;;;;;;6.28;1.65;;;;;;;19.24;57.27;101377.34;5086464;28;20056;-43
2022/10/25 05:28:35;;;;;;;5.57;2.00;;;;;;;19.24;57.20;101388.09;5081199;28;20369;-43
2022/10/25 05:31:06;;;;;;;3.88;1.42;;;;;;;19.22;57.06;101379.34;5079467;28;20048;-42
2022/10/25 05:33:33;;;;;;;3.50;1.60;;;;;;;19.24;57.29;101381.88;5077399;28;20044;-44
2022/10/25 05:36:01;;;;;;;5.53;1.65;;;;;;;19.23;56.91;101382.88;5085202;28;20068;-44
2022/10/25 05:38:28;;;;;;;4.53;1.67;;;;;;;19.21;57.48;101382.16;5084035;28;20043;-43
2022/10/25 05:40:59;;;;;;;3.67;1.52;;;;;;;19.20;57.22;101384.00;5082953;28;20062;-44
2022/10/25 05:43:26;;;;;;;5.40;1.98;;;;;;;19.20;57.37;101396.59;5081167;28;20049;-43
2022/10/25 05:46:20;;;;;;;6.30;2.40;;;;;;;19.19;57.06;101395.75;5080122;28;20040;-45
2022/10/25 05:48:48;;;;;;;5.60;1.70;;;;;;;19.19;57.08;101395.75;5082291;28;20048;-43
2022/10/25 05:51:19;;;;;;;3.97;1.95;;;;;;;19.21;56.82;101396.44;5078612;28;20044;-43
2022/10/25 05:54:10;;;;;;;5.28;1.65;;;;;;;19.20;56.75;101405.50;5081704;28;20052;-45
2022/10/25 05:56:37;;;;;;;4.50;1.90;;;;;;;19.21;56.74;101409.88;5079635;28;20063;-44
2022/10/25 05:59:10;;;;;;;4.53;1.55;;;;;;;19.21;57.23;101409.88;5085668;28;20052;-45
2022/10/25 06:01:38;;;;;;;3.92;1.50;;;;;;;19.20;57.72;101418.94;5083690;28;20043;-44
2022/10/25 06:04:06;;;;;;;6.43;1.80;;;;;;;19.20;56.75;101413.56;5081452;28;20048;-43
2022/10/25 06:06:33;;;;;;;5.20;1.60;;;;;;;19.20;57.24;101424.31;5081896;28;20083;-44
2022/10/25 06:09:00;;;;;;;4.28;1.60;;;;;;;19.21;57.47;101426.00;5082024;28;20109;-45
2022/10/25 06:11:28;;;;;;;3.85;1.63;;;;;;;19.21;56.76;101420.63;5085926;28;20059;-43
2022/10/25 06:13:55;;;;;;;3.17;1.30;;;;;;;19.20;56.96;101416.25;5083537;28;20048;-43
2022/10/25 06:16:22;;;;;;;4.85;1.83;;;;;;;19.21;56.92;101422.47;5083959;28;20056;-43
2022/10/25 06:18:49;;;;;;;4.38;2.05;;;;;;;19.21;57.26;101426.00;5080180;28;20049;-43
2022/10/25 06:21:18;;;;;;;4.40;1.50;;;;;;;19.21;57.47;101426.00;5081200;28;20048;-44
2022/10/25 06:23:46;;;;;;;7.78;2.03;;;;;;;19.20;57.28;101434.22;5081664;28;20044;-44
2022/10/25 06:26:16;;;;;;;3.20;1.67;;;;;;;19.18;56.81;101439.75;5079685;28;20052;-45
2022/10/25 06:28:43;;;;;;;3.47;1.80;;;;;;;19.20;57.31;101444.97;5085384;28;20247;-45
2022/10/25 06:31:15;;;;;;;4.53;1.60;;;;;;;19.19;57.31;101449.50;5079671;28;20048;-46
2022/10/25 06:33:42;;;;;;;3.78;1.70;;;;;;;19.20;56.85;101461.09;5082500;28;20044;-44
2022/10/25 06:36:15;;;;;;;3.45;1.80;;;;;;;19.19;57.01;101459.41;5082209;28;20056;-45
2022/10/25 06:38:45;;;;;;;2.80;1.08;;;;;;;19.19;56.84;101462.09;5084925;28;20343;-45
2022/10/25 06:41:14;;;;;;;6.10;1.67;;;;;;;19.19;57.27;101454.88;5085439;28;20051;-44
2022/10/25 06:43:41;;;;;;;5.47;1.88;;;;;;;19.19;56.62;101456.72;5083701;28;20044;-43
2022/10/25 06:46:16;;;;;;;4.55;1.40;;;;;;;19.19;57.51;101460.25;5079833;28;20514;-44
2022/10/25 06:48:43;;;;;;;4.88;1.98;;;;;;;19.17;57.21;101451.47;5079688;28;20059;-44
2022/10/25 06:51:09;;;;;;;5.43;2.30;;;;;;;19.18;56.87;101463.94;5081372;28;20063;-43
2022/10/25 06:53:37;;;;;;;3.63;1.52;;;;;;;19.18;56.92;101469.31;5081352;28;20044;-44
2022/10/25 06:56:06;;;;;;;5.78;1.63;;;;;;;19.18;56.88;101474.69;5083125;28;20056;-46
2022/10/25 06:58:38;;;;;;;3.25;1.60;;;;;;;19.18;57.25;101469.31;5079203;28;20052;-44
2022/10/25 07:01:08;;;;;;;3.80;1.60;;;;;;;19.19;57.40;101472.84;5083205;28;20062;-45
2022/10/25 07:03:35;;;;;;;4.68;1.60;;;;;;;19.18;56.94;101474.69;5076057;28;20458;-45
2022/10/25 07:06:10;;;;;;;7.03;1.85;;;;;;;19.17;56.86;101472.97;5083024;28;20101;-44
2022/10/25 07:08:39;;;;;;;3.72;1.55;;;;;;;19.17;57.16;101472.97;5085422;28;20055;-43
2022/10/25 07:11:08;;;;;;;6.68;1.90;;;;;;;19.17;56.89;101478.34;5089066;28;20334;-44
2022/10/25 07:13:34;;;;;;;4.63;1.80;;;;;;;19.18;56.87;101489.97;5086210;28;20051;-45
2022/10/25 07:16:06;;;;;;;6.22;1.60;;;;;;;19.17;56.92;101494.47;5085018;28;20036;-45
2022/10/25 07:18:34;;;;;;;3.80;1.50;;;;;;;19.17;57.03;101491.78;5084544;28;20045;-43
2022/10/25 07:21:02;;;;;;;3.00;1.45;;;;;;;19.18;57.01;101496.19;5084678;28;20051;-46
2022/10/25 07:23:29;;;;;;;4.03;1.45;;;;;;;19.18;56.86;101496.19;5081687;28;20063;-46
2022/10/25 07:25:56;;;;;;;4.22;2.13;;;;;;;19.18;56.98;101501.56;5081101;28;20086;-44
2022/10/25 07:28:23;;;;;;;2.25;1.35;;;;;;;19.18;57.43;101498.03;5084204;28;20048;-45
2022/10/25 07:30:50;;;;;;;7.35;1.83;;;;;;;19.19;56.77;101511.31;5082474;28;20048;-47
2022/10/25 07:33:18;;;;;;;2.67;1.40;;;;;;;19.19;57.31;101508.63;5080993;28;20468;-44
2022/10/25 07:35:46;;;;;;;4.50;1.50;;;;;;;19.20;56.94;101506.78;5087077;28;20044;-44
2022/10/25 07:38:31;;;;;;;2.92;1.60;;;;;;;19.21;56.94;101514.69;5085759;28;20331;-44
2022/10/25 07:40:58;;;;;;;3.92;1.42;;;;;;;19.22;56.93;101512.88;5083048;28;20491;-44
2022/10/25 07:43:26;;;;;;;4.53;1.50;;;;;;;19.21;56.84;101520.06;5080488;28;20344;-45
2022/10/25 07:45:53;;;;;;;2.70;1.70;;;;;;;19.23;56.87;101515.41;5081913;28;20234;-46
2022/10/25 07:48:20;;;;;;;4.22;1.67;;;;;;;19.23;57.39;101517.25;5090877;28;20059;-44
2022/10/25 07:50:47;;;;;;;4.95;2.05;;;;;;;19.23;56.95;101515.41;5088227;28;20047;-43
2022/10/25 07:53:13;;;;;;;4.25;1.50;;;;;;;19.24;56.94;101524.31;5088592;28;20109;-45
2022/10/25 07:55:40;;;;;;;4.72;1.63;;;;;;;19.24;56.83;101522.47;5088067;28;20463;-45
2022/10/25 07:58:09;;;;;;;8.27;1.90;;;;;;;19.24;57.16;101527.84;5083800;28;20056;-44
2022/10/25 08:00:36;;;;;;;2.50;1.42;;;;;;;19.24;57.28;101519.78;5087971;28;20389;-43
2022/10/25 08:03:03;;;;;;;3.72;1.73;;;;;;;19.26;56.38;101533.09;5081839;28;20415;-43
2022/10/25 08:05:29;;;;;;;3.40;1.65;;;;;;;19.27;56.54;101539.31;5085622;28;20947;-44
2022/10/25 08:07:56;;;;;;;3.30;1.70;;;;;;;19.26;56.86;101535.78;5084765;28;20044;-43
2022/10/25 08:10:22;;;;;;;4.05;1.80;;;;;;;19.27;56.95;101537.47;5082047;28;20320;-46
2022/10/25 08:12:50;;;;;;;4.45;1.75;;;;;;;19.28;57.32;101543.69;5085567;28;20044;-45
2022/10/25 08:15:17;;;;;;;4.50;1.63;;;;;;;19.29;57.48;101540.00;5083480;28;20088;-45
2022/10/25 08:17:43;;;;;;;4.13;1.80;;;;;;;19.28;57.22;101544.53;5085370;28;20374;-44
2022/10/25 08:20:11;;;;;;;4.45;1.40;;;;;;;19.28;56.76;101549.91;5084065;28;20048;-46
2022/10/25 08:22:37;;;;;;;3.88;1.92;;;;;;;19.28;57.54;101547.22;5079571;28;20048;-44
2022/10/25 08:25:04;;;;;;;3.60;1.83;;;;;;;19.30;57.32;101549.78;5087660;28;20045;-44
2022/10/25 08:27:31;;;;;;;3.38;1.80;;;;;;;19.29;56.89;101538.16;5084933;28;20044;-46
2022/10/25 08:29:57;;;;;;;5.72;1.83;;;;;;;19.29;57.13;101543.53;5089601;28;20044;-44
2022/10/25 08:32:24;;;;;;;4.45;2.15;;;;;;;19.31;57.18;101556.84;5086399;28;20056;-44
2022/10/25 08:34:50;;;;;;;6.25;2.05;;;;;;;19.31;57.02;101554.16;5083454;28;20091;-45
2022/10/25 08:37:17;;;;;;;4.53;1.83;;;;;;;19.31;56.53;101563.06;5080062;28;20047;-44
2022/10/25 08:39:43;;;;;;;4.15;1.75;;;;;;;19.31;57.25;101563.06;5085802;28;20434;-43
2022/10/25 08:42:20;;;;;;;4.28;2.22;;;;;;;19.31;56.74;101565.75;5084428;28;20056;-44
2022/10/25 08:45:02;;;;;;;4.60;1.88;;;;;;;19.32;56.79;101567.44;5082149;28;20048;-43
2022/10/25 08:47:37;;;;;;;4.70;1.75;;;;;;;19.34;57.43;101572.69;5087582;28;20312;-43
2022/10/25 08:50:35;;;;;;;5.68;1.98;;;;;;;19.34;56.99;101573.53;5080881;28;20060;-44
2022/10/25 08:53:07;;;;;;;6.07;1.60;;;;;;;19.36;56.40;101568.00;5085137;28;20044;-44
2022/10/25 08:55:36;;;;;;;2.05;1.40;;;;;;;19.37;57.18;101580.44;5086851;28;20055;-44
2022/10/25 08:58:19;;;;;;;5.40;1.75;;;;;;;19.39;57.48;101587.38;5083933;28;20052;-44
2022/10/25 09:00:47;;;;;;;3.65;2.28;;;;;;;19.41;56.76;101588.06;5083633;28;20051;-45
2022/10/25 09:03:24;;;;;;;4.35;1.88;;;;;;;19.41;56.84;101585.38;5084424;28;20727;-44
2022/10/25 09:06:13;;;;;;;3.50;1.67;;;;;;;19.43;57.15;101590.63;5087944;28;20044;-44
2022/10/25 09:08:56;;;;;;;3.88;1.90;;;;;;;19.44;56.80;101586.94;5083327;28;20051;-43
2022/10/25 09:11:29;;;;;;;3.88;1.80;;;;;;;19.45;56.59;101597.53;5089636;28;20060;-44
2022/10/25 09:14:24;;;;;;;4.65;1.83;;;;;;;19.45;56.84;101596.69;5084807;28;20355;-45
2022/10/25 09:16:56;;;;;;;3.75;1.50;;;;;;;19.47;56.91;101595.56;5079510;28;20351;-43
2022/10/25 09:19:33;;;;;;;5.20;1.63;;;;;;;19.49;56.52;101598.09;5080830;28;20055;-48
2022/10/25 09:22:04;;;;;;;2.97;1.90;;;;;;;19.52;57.10;101594.28;5079826;28;20430;-46
2022/10/25 09:24:50;;;;;;;6.25;2.00;;;;;;;19.53;56.63;101596.81;5081702;28;20052;-44
2022/10/25 09:27:47;;;;;;;4.90;1.83;;;;;;;19.59;56.61;101595.41;5080932;28;20331;-46
2022/10/25 09:30:14;;;;;;;3.40;1.60;;;;;;;19.63;56.44;101592.31;5085376;28;20048;-45
2022/10/25 09:32:43;;;;;;;3.25;1.65;;;;;;;19.66;56.75;101592.03;5082988;28;20052;-43
2022/10/25 09:35:19;;;;;;;2.88;1.83;;;;;;;19.70;56.90;101603.34;5077841;28;20067;-45
2022/10/25 09:37:54;;;;;;;4.65;1.98;;;;;;;19.75;56.62;101602.91;5088701;28;20051;-44
2022/10/25 09:40:24;;;;;;;4.07;1.75;;;;;;;19.78;56.21;101607.97;5085069;28;20045;-44
2022/10/25 09:43:00;;;;;;;3.67;1.52;;;;;;;19.82;56.34;101607.56;5086600;28;20048;-44
2022/10/25 09:45:50;;;;;;;2.33;1.70;;;;;;;19.86;56.87;101613.47;5080964;28;20101;-46
2022/10/25 09:48:26;;;;;;;3.28;1.70;;;;;;;19.89;56.89;101632.00;5080037;28;20052;-44
2022/10/25 09:51:03;;;;;;;2.80;1.42;;;;;;;19.90;56.85;101621.13;5082309;28;20044;-45
2022/10/25 09:53:32;;;;;;;2.03;1.50;;;;;;;19.92;56.04;101620.97;5082454;28;20332;-45
2022/10/25 09:56:03;;;;;;;2.78;1.60;;;;;;;19.93;55.82;101620.81;5083699;28;20050;-45
2022/10/25 09:58:37;;;;;;;8.63;2.45;;;;;;;19.95;56.60;101617.97;5076399;28;20060;-44
2022/10/25 10:01:11;;;;;;;2.80;1.90;;;;;;;19.97;56.54;101621.34;5086089;28;20059;-44
2022/10/25 10:03:40;;;;;;;4.25;2.38;;;;;;;19.97;55.76;101635.66;5078710;28;20048;-47
2022/10/25 10:06:21;;;;;;;6.00;1.90;;;;;;;19.99;56.28;101640.91;5087192;28;20040;-46
2022/10/25 10:08:52;;;;;;;3.40;2.03;;;;;;;20.00;56.22;101634.53;5078688;28;20435;-44
2022/10/25 10:11:19;;;;;;;4.70;2.00;;;;;;;20.01;56.17;101644.28;5087092;28;20052;-44
2022/10/25 10:14:02;;;;;;;4.72;1.80;;;;;;;20.02;56.50;101650.50;5079252;28;20040;-45
2022/10/25 10:16:41;;;;;;;6.10;2.03;;;;;;;20.01;56.43;101649.66;5084971;28;20498;-44
2022/10/25 10:19:18;;;;;;;4.30;1.65;;;;;;;20.03;56.13;101655.78;5082836;28;20470;-45
2022/10/25 10:21:51;;;;;;;4.50;1.85;;;;;;;20.03;55.35;101649.53;5084854;28;20051;-44
2022/10/25 10:24:33;;;;;;;3.78;1.80;;;;;;;20.02;56.14;101648.69;5076029;28;20048;-47
2022/10/25 10:27:12;;;;;;;6.93;1.85;;;;;;;20.03;56.09;101653.06;5084534;28;20420;-46
2022/10/25 10:29:56;;;;;;;2.75;1.70;;;;;;;20.02;55.51;101651.38;5079224;28;20458;-46
2022/10/25 10:32:28;;;;;;;2.85;1.80;;;;;;;20.02;56.13;101650.50;5085362;28;20051;-47
2022/10/25 10:34:57;;;;;;;6.20;2.38;;;;;;;20.03;55.98;101657.63;5080090;28;20139;-44
2022/10/25 10:37:26;;;;;;;4.07;2.17;;;;;;;20.02;55.28;101651.38;5085916;28;20063;-46
2022/10/25 10:39:52;;;;;;;4.43;1.80;;;;;;;20.04;55.98;101648.53;5083434;28;20109;-45
2022/10/25 10:42:35;;;;;;;14.05;2.70;;;;;;;20.05;56.26;101652.91;5080543;28;20052;-47
2022/10/25 10:45:06;;;;;;;7.93;2.22;;;;;;;20.07;55.72;101659.88;5079941;28;20048;-46
2022/10/25 10:47:55;;;;;;;3.70;1.70;;;;;;;20.09;55.72;101651.63;5081330;28;20453;-45
2022/10/25 10:50:23;;;;;;;4.00;2.00;;;;;;;20.11;56.06;101644.28;5079315;28;20062;-48
2022/10/25 10:53:00;;;;;;;4.10;1.92;;;;;;;20.12;55.79;101651.34;5085638;28;20044;-44
2022/10/25 10:55:35;;;;;;;2.38;1.42;;;;;;;20.14;55.79;101655.59;5086738;28;20437;-44
2022/10/25 10:58:11;;;;;;;3.60;1.77;;;;;;;20.16;56.16;101652.75;5078869;28;20541;-47
2022/10/25 11:00:37;;;;;;;2.90;1.58;;;;;;;20.17;55.48;101652.56;5085886;28;20418;-46
2022/10/25 11:03:04;;;;;;;6.60;2.10;;;;;;;20.19;55.77;101655.16;5080333;28;20060;-47
2022/10/25 11:05:36;;;;;;;4.90;2.00;;;;;;;20.19;56.25;101661.38;5082353;28;20075;-44
2022/10/25 11:08:06;;;;;;;4.93;1.90;;;;;;;20.20;56.12;101663.06;5085070;28;20053;-46
2022/10/25 11:10:34;;;;;;;3.92;1.65;;;;;;;20.22;55.73;101665.59;5087429;28;20052;-44
2022/10/25 11:13:18;;;;;;;3.72;1.92;;;;;;;20.23;55.58;101661.09;5085944;28;20052;-47
2022/10/25 11:16:03;;;;;;;8.25;2.50;;;;;;;20.24;56.41;101660.06;5083356;28;20431;-45
2022/10/25 11:19:07;;;;;;;6.50;1.83;;;;;;;20.25;55.96;101661.75;5082244;28;20402;-45
2022/10/25 11:21:52;;;;;;;4.93;1.80;;;;;;;20.28;56.08;101665.00;5082121;28;20229;-44
2022/10/25 11:24:51;;;;;;;3.25;1.80;;;;;;;20.29;55.68;101663.16;5082871;28;20317;-48
2022/10/25 11:27:35;;;;;;;3.45;1.80;;;;;;;20.31;56.09;101666.56;5084414;28;20067;-46
2022/10/25 11:30:18;;;;;;;3.85;1.35;;;;;;;20.31;56.11;101662.03;5086242;28;20078;-46
2022/10/25 11:33:02;;;;;;;4.65;1.60;;;;;;;20.32;56.13;101670.94;5087009;28;20052;-45
2022/10/25 11:35:43;;;;;;;2.95;1.52;;;;;;;20.34;55.60;101671.63;5086925;28;20048;-45
2022/10/25 11:38:22;;;;;;;2.33;1.38;;;;;;;20.34;55.88;101668.94;5085563;28;20052;-46
2022/10/25 11:41:07;;;;;;;4.50;1.67;;;;;;;20.34;55.84;101677.03;5084263;28;20403;-45
2022/10/25 11:44:01;;;;;;;4.35;1.58;;;;;;;20.34;55.54;101666.25;5090060;28;20807;-46
2022/10/25 11:46:46;;;;;;;2.53;1.80;;;;;;;20.35;56.14;101663.44;5086530;28;20058;-44